Aérodrome :
LOGIN :

S'inscrire | Disclaimer

   EN    FR    IT 

 










Légende :    VFR   VFR Marginal   IFR   IFR Intensif   IFR Très Intensif
Visi : 
Plafond : 
>= 8 km
>= 3000ft
5 à 8 km
1000 à 3000 ft
1500m à 5 km
500 à 1000 ft
800 à 1500m
200 à 500 ft
< 800m
< 200 ft
Symboles :   Orages  Brouillard  Fortes neiges  Fortes précipitations  Vent > 20 kt
SIGMETs :   Divers  Orages  Givrage  Turbulence  Onde Orograph.  Cendres Volcan.







- Altitude de l'aérodrome : 112 ft
- Code IATA : KIR


EIKY - Kerry Farranfore

DERNIER METAR :
  • 121730Z 31014KT 9999 SCT026 BKN032 09/06 Q1004

METARs EXPIRÉS :
  • 121700Z 30012KT 9999 BKN030 09/06 Q1004
  • 121630Z 29011KT 260V320 9999 -RA SCT019 BKN033 09/05 Q1003
  • 121600Z 31020G30KT 9999 SCT018 BKN030 10/06 Q1003
  • 121530Z 29010G22KT 230V320 9999 -RA SCT012 BKN031 09/07 Q1002
  • 121500Z 29006KT 220V340 9999 SCT014 BKN040 09/07 Q1002

TAF TAF EIKY
Valide du 12 à 18h jusqu'au 12 à 21h UTC


121700Z 1218/1221 30014G25KT 9999 SCT018 BKN025
BECMG 1219/1221 27012KT
Pas de NOTAMs connus pour ce terrain.
1 SIGMET publié pour la FIR Shannon (EISN) :
 
Turbulence forte
EISN SIGMET 03 VALID 121430/121830 EINN
EISN SHANNON FIR/UIR SEV TURB FCST WI N5100 W00800 - N5420 W01200 - N5434 W01000 - N5445 W00900 - N5425 W00810 - N5215 W00540 - N5100 W00800 FL220/410 MOV ENE AT 18KT NC=



MET'MAP, la Météo Aéronautique d'un coup d'oeil ! - Copyright ORBIFLY Décembre 2007 - Disclaimer

ORBIFLY MET'MAP TEAM :

Programmation & Développement : Alexandra Zaïnal
Conception & Développement : Baudouin d'Aumeries
Co-Programmation & Développement : Marc-Olivier Méhu
Soutien technique & logistique : Manuel Goepfert

Contact : metmap@orbifly.com




SOURCES & CREDITS :

   NOAA